createdAt,value
2018-10-05T00:00:15.019Z,9.50
2018-10-05T00:02:43.615Z,9.50
2018-10-05T00:05:12.231Z,9.50
2018-10-05T00:07:40.842Z,9.40
2018-10-05T00:10:09.535Z,9.40
2018-10-05T00:12:38.157Z,9.40
2018-10-05T00:15:06.979Z,9.40
2018-10-05T00:17:35.584Z,9.40
2018-10-05T00:20:04.184Z,9.40
2018-10-05T00:22:32.796Z,9.40
2018-10-05T00:25:01.408Z,9.40
2018-10-05T00:27:30.019Z,9.40
2018-10-05T00:29:58.612Z,9.40
2018-10-05T00:32:27.352Z,9.30
2018-10-05T00:34:55.931Z,9.30
2018-10-05T00:37:24.534Z,9.20
2018-10-05T00:39:53.255Z,9.20
2018-10-05T00:42:21.850Z,9.20
2018-10-05T00:44:50.451Z,9.20
2018-10-05T00:47:19.059Z,9.20
2018-10-05T00:49:47.772Z,9.20
2018-10-05T00:52:16.427Z,9.20
2018-10-05T00:54:45.032Z,9.20
2018-10-05T00:57:13.715Z,9.20
2018-10-05T00:59:42.506Z,9.10
2018-10-05T01:02:11.119Z,9.10
2018-10-05T01:04:39.730Z,9.10
2018-10-05T01:07:08.347Z,9.10
2018-10-05T01:09:36.959Z,9.00
2018-10-05T01:12:06.015Z,9.00
2018-10-05T01:14:34.615Z,9.10
2018-10-05T01:17:03.268Z,9.10
2018-10-05T01:19:31.863Z,9.10
2018-10-05T01:22:00.477Z,9.10
2018-10-05T01:24:29.167Z,9.00
2018-10-05T01:26:57.788Z,9.00
2018-10-05T01:29:26.382Z,9.00
2018-10-05T01:31:54.978Z,9.00
2018-10-05T01:34:23.582Z,9.00
2018-10-05T01:36:52.197Z,8.90
2018-10-05T01:39:20.795Z,8.90
2018-10-05T01:41:49.406Z,8.90
2018-10-05T01:44:18.019Z,8.90
2018-10-05T01:46:46.622Z,8.80
2018-10-05T01:49:15.220Z,8.90
2018-10-05T01:51:43.837Z,8.90
2018-10-05T01:54:12.500Z,8.80
2018-10-05T01:56:41.128Z,8.80
2018-10-05T01:59:09.727Z,8.80
2018-10-05T02:01:38.355Z,8.70
2018-10-05T02:04:06.952Z,8.70
2018-10-05T02:06:35.568Z,8.70
2018-10-05T02:09:04.700Z,8.60
2018-10-05T02:11:33.320Z,8.60
2018-10-05T02:14:01.921Z,8.60
2018-10-05T02:16:30.527Z,8.60
2018-10-05T02:18:59.148Z,8.50
2018-10-05T02:21:27.765Z,8.50
2018-10-05T02:23:56.356Z,8.50
2018-10-05T02:26:24.961Z,8.50
2018-10-05T02:28:53.559Z,8.60
2018-10-05T02:31:22.176Z,8.50
2018-10-05T02:33:50.798Z,8.50
2018-10-05T02:36:19.416Z,8.50
2018-10-05T02:38:48.027Z,8.50
2018-10-05T02:41:16.640Z,8.40
2018-10-05T02:43:45.264Z,8.50
2018-10-05T02:46:13.859Z,8.50
2018-10-05T02:48:42.475Z,8.50
2018-10-05T02:51:11.072Z,8.50
2018-10-05T02:53:39.692Z,8.50
2018-10-05T02:56:08.292Z,8.50
2018-10-05T02:58:36.920Z,8.50
2018-10-05T03:01:17.059Z,8.50
2018-10-05T03:03:45.675Z,8.40
2018-10-05T03:06:14.294Z,8.30
2018-10-05T03:08:42.936Z,8.40
2018-10-05T03:11:11.568Z,8.40
2018-10-05T03:13:40.172Z,8.40
2018-10-05T03:16:08.775Z,8.40
2018-10-05T03:18:37.380Z,8.40
2018-10-05T03:21:06.196Z,8.40
2018-10-05T03:23:34.807Z,8.40
2018-10-05T03:26:03.403Z,8.40
2018-10-05T03:28:32.012Z,8.30
2018-10-05T03:31:00.628Z,8.30
2018-10-05T03:33:29.273Z,8.40
2018-10-05T03:35:57.856Z,8.30
2018-10-05T03:38:26.464Z,8.40
2018-10-05T03:40:55.060Z,8.40
2018-10-05T03:43:23.960Z,8.40
2018-10-05T03:45:52.564Z,8.40
2018-10-05T03:48:21.154Z,8.40
2018-10-05T03:50:49.752Z,8.30
2018-10-05T03:53:18.352Z,8.30
2018-10-05T03:55:46.948Z,8.30
2018-10-05T03:58:15.557Z,8.40
2018-10-05T04:00:44.170Z,8.40
2018-10-05T04:03:12.759Z,8.30
2018-10-05T04:05:41.347Z,8.40
2018-10-05T04:08:09.951Z,8.30
2018-10-05T04:10:38.552Z,8.30
2018-10-05T04:13:07.174Z,8.30
2018-10-05T04:15:35.756Z,8.30
2018-10-05T04:18:04.404Z,8.30
2018-10-05T04:20:32.998Z,8.30
2018-10-05T04:23:01.604Z,8.30
2018-10-05T04:25:30.214Z,8.30
2018-10-05T04:27:58.808Z,8.20
2018-10-05T04:30:27.420Z,8.20
2018-10-05T04:32:56.007Z,8.20
2018-10-05T04:35:24.664Z,8.20
2018-10-05T04:37:53.205Z,8.20
2018-10-05T04:40:21.811Z,8.20
2018-10-05T04:42:50.434Z,8.20
2018-10-05T04:45:19.032Z,8.20
2018-10-05T04:47:47.627Z,8.20
2018-10-05T04:50:16.235Z,8.20
2018-10-05T04:52:44.844Z,8.20
2018-10-05T04:55:13.451Z,8.10
2018-10-05T04:57:42.052Z,8.10
2018-10-05T05:00:10.668Z,8.10
2018-10-05T05:02:39.275Z,8.10
2018-10-05T05:05:07.899Z,8.00
2018-10-05T05:07:36.498Z,8.10
2018-10-05T05:10:05.284Z,8.10
2018-10-05T05:12:33.879Z,8.10
2018-10-05T05:15:02.488Z,8.10
2018-10-05T05:17:31.123Z,8.10
2018-10-05T05:19:59.727Z,8.00
2018-10-05T05:22:28.372Z,8.00
2018-10-05T05:24:57.002Z,8.00
2018-10-05T05:27:25.602Z,8.00
2018-10-05T05:29:54.216Z,8.00
2018-10-05T05:32:22.807Z,8.00
2018-10-05T05:34:51.422Z,8.00
2018-10-05T05:37:20.016Z,7.90
2018-10-05T05:39:48.621Z,7.90
2018-10-05T05:42:17.207Z,7.90
2018-10-05T05:44:45.807Z,7.90
2018-10-05T05:47:14.412Z,7.90
2018-10-05T05:49:43.018Z,7.90
2018-10-05T05:52:11.630Z,7.90
2018-10-05T05:54:40.224Z,7.90
2018-10-05T05:57:08.819Z,7.90
2018-10-05T05:59:37.424Z,7.90
2018-10-05T06:02:06.030Z,7.90
2018-10-05T06:04:34.665Z,8.00
2018-10-05T06:07:03.255Z,8.10
2018-10-05T06:09:31.856Z,8.10
2018-10-05T06:12:00.456Z,8.20
2018-10-05T06:14:29.071Z,8.20
2018-10-05T06:16:57.752Z,8.20
2018-10-05T06:19:26.359Z,8.30
2018-10-05T06:21:55.051Z,8.40
2018-10-05T06:24:23.581Z,8.50
2018-10-05T06:26:52.181Z,8.50
2018-10-05T06:29:20.780Z,8.50
2018-10-05T06:31:49.380Z,8.50
2018-10-05T06:34:18.668Z,8.60
2018-10-05T06:36:47.272Z,8.70
2018-10-05T06:39:30.768Z,8.80
2018-10-05T06:41:59.384Z,9.00
2018-10-05T06:44:27.979Z,9.10
2018-10-05T06:46:56.592Z,9.20
2018-10-05T06:49:25.199Z,9.30
2018-10-05T06:51:53.964Z,9.40
2018-10-05T06:54:22.540Z,9.50
2018-10-05T06:56:51.212Z,9.60
2018-10-05T06:59:19.829Z,9.70
2018-10-05T07:01:48.508Z,9.90
2018-10-05T07:04:17.079Z,10.00
2018-10-05T07:06:45.704Z,10.00
2018-10-05T07:09:14.373Z,10.20
2018-10-05T07:11:42.946Z,10.30
2018-10-05T07:14:11.548Z,10.50
2018-10-05T07:16:40.764Z,10.60
2018-10-05T07:19:09.372Z,10.70
2018-10-05T07:21:38.016Z,10.90
2018-10-05T07:24:07.159Z,11.00
2018-10-05T07:26:35.824Z,11.20
2018-10-05T07:29:04.479Z,11.60
2018-10-05T07:31:33.069Z,12.00
2018-10-05T07:34:01.684Z,12.40
2018-10-05T07:36:30.287Z,12.50
2018-10-05T07:38:58.883Z,12.50
2018-10-05T07:41:27.514Z,12.40
2018-10-05T07:43:56.125Z,12.40
2018-10-05T07:46:24.734Z,12.50
2018-10-05T07:48:53.342Z,12.50
2018-10-05T07:51:21.940Z,12.60
2018-10-05T07:53:50.584Z,12.70
2018-10-05T07:56:19.256Z,12.70
2018-10-05T07:58:47.829Z,12.80
2018-10-05T08:01:16.464Z,12.80
2018-10-05T08:03:45.138Z,13.00
2018-10-05T08:06:13.768Z,13.10
2018-10-05T08:08:42.400Z,13.30
2018-10-05T08:11:11.015Z,13.50
2018-10-05T08:13:39.622Z,13.60
2018-10-05T08:16:08.278Z,13.80
2018-10-05T08:18:36.858Z,13.90
2018-10-05T08:21:05.655Z,14.20
2018-10-05T08:23:34.199Z,14.40
2018-10-05T08:26:02.811Z,14.50
2018-10-05T08:28:31.413Z,14.60
2018-10-05T08:31:00.016Z,14.70
2018-10-05T08:33:28.628Z,14.70
2018-10-05T08:35:57.252Z,14.80
2018-10-05T08:38:25.881Z,15.00
2018-10-05T08:40:54.489Z,15.30
2018-10-05T08:43:23.096Z,15.80
2018-10-05T08:45:51.805Z,16.10
2018-10-05T08:48:20.326Z,16.30
2018-10-05T08:50:48.987Z,16.60
2018-10-05T08:53:17.615Z,17.40
2018-10-05T08:55:46.211Z,18.10
2018-10-05T08:58:14.806Z,18.50
2018-10-05T09:00:43.419Z,18.10
2018-10-05T09:03:12.035Z,17.90
2018-10-05T09:05:40.700Z,17.60
2018-10-05T09:08:09.257Z,17.60
2018-10-05T09:10:37.863Z,17.90
2018-10-05T09:13:06.543Z,18.20
2018-10-05T09:15:35.168Z,19.60
2018-10-05T09:18:03.808Z,21.80
2018-10-05T09:20:32.405Z,23.90
2018-10-05T09:23:01.016Z,24.90
2018-10-05T09:25:29.613Z,24.40
2018-10-05T09:27:58.219Z,24.30
2018-10-05T09:30:26.836Z,23.10
2018-10-05T09:32:55.432Z,22.20
2018-10-05T09:35:24.047Z,21.40
2018-10-05T09:37:52.778Z,20.80
2018-10-05T09:40:21.311Z,20.20
2018-10-05T09:42:49.908Z,19.80
2018-10-05T09:45:18.591Z,19.60
2018-10-05T09:47:47.131Z,19.50
2018-10-05T09:50:15.764Z,19.90
2018-10-05T09:52:44.475Z,20.40
2018-10-05T09:55:13.068Z,20.80
2018-10-05T09:57:41.727Z,21.70
2018-10-05T10:00:14.614Z,22.30
2018-10-05T10:02:48.711Z,22.50
2018-10-05T10:05:17.334Z,22.60
2018-10-05T10:07:45.940Z,22.30
2018-10-05T10:10:14.540Z,22.40
2018-10-05T10:12:43.172Z,23.00
2018-10-05T10:15:11.776Z,23.50
2018-10-05T10:17:40.379Z,23.40
2018-10-05T10:20:08.976Z,23.10
2018-10-05T10:22:37.635Z,22.70
2018-10-05T10:25:06.179Z,22.50
2018-10-05T10:27:34.819Z,22.40
2018-10-05T10:30:03.404Z,22.30
2018-10-05T10:32:32.011Z,22.40
2018-10-05T10:35:00.623Z,22.90
2018-10-05T10:37:29.235Z,23.60
2018-10-05T10:39:57.915Z,24.30
2018-10-05T10:42:26.497Z,24.80
2018-10-05T10:44:55.051Z,25.60
2018-10-05T10:47:23.651Z,26.60
2018-10-05T10:49:52.466Z,28.40
2018-10-05T10:52:21.059Z,28.50
2018-10-05T10:54:49.659Z,30.30
2018-10-05T10:57:18.267Z,30.10
2018-10-05T10:59:46.876Z,30.70
2018-10-05T11:02:15.561Z,30.40
2018-10-05T11:04:44.611Z,30.30
2018-10-05T11:07:13.165Z,31.20
2018-10-05T11:09:41.813Z,30.60
2018-10-05T11:12:10.409Z,31.70
2018-10-05T11:14:39.026Z,32.60
2018-10-05T11:17:07.648Z,32.20
2018-10-05T11:19:36.224Z,31.80
2018-10-05T11:22:04.836Z,31.50
2018-10-05T11:24:33.448Z,32.80
2018-10-05T11:27:02.073Z,32.90
2018-10-05T11:29:30.755Z,32.40
2018-10-05T11:31:59.312Z,32.40
2018-10-05T11:34:27.919Z,32.80
2018-10-05T11:36:56.603Z,32.30
2018-10-05T11:39:25.219Z,30.50
2018-10-05T11:41:53.810Z,31.20
2018-10-05T11:44:22.423Z,31.00
2018-10-05T11:46:51.018Z,31.00
2018-10-05T11:49:19.611Z,31.60
2018-10-05T11:51:48.317Z,31.80
2018-10-05T11:54:16.929Z,32.00
2018-10-05T11:56:45.529Z,32.30
2018-10-05T11:59:14.124Z,32.00
2018-10-05T12:01:42.705Z,32.50
2018-10-05T12:04:11.325Z,33.50
2018-10-05T12:06:39.927Z,34.70
2018-10-05T12:09:09.021Z,35.50
2018-10-05T12:11:38.003Z,34.10
2018-10-05T12:14:06.619Z,32.40
2018-10-05T12:16:35.215Z,31.30
2018-10-05T12:19:03.846Z,32.30
2018-10-05T12:21:32.713Z,31.90
2018-10-05T12:24:01.628Z,32.50
2018-10-05T12:26:30.277Z,33.30
2018-10-05T12:28:58.828Z,34.10
2018-10-05T12:31:27.451Z,33.20
2018-10-05T12:33:56.068Z,32.10
2018-10-05T12:36:24.667Z,32.40
2018-10-05T12:38:53.283Z,33.00
2018-10-05T12:41:21.891Z,33.30
2018-10-05T12:43:50.504Z,34.70
2018-10-05T12:46:19.108Z,34.00
2018-10-05T12:48:47.712Z,33.30
2018-10-05T12:51:16.317Z,34.50
2018-10-05T12:53:44.935Z,34.00
2018-10-05T12:56:13.543Z,35.40
2018-10-05T12:58:42.155Z,35.30
2018-10-05T13:01:10.767Z,35.50
2018-10-05T13:03:39.368Z,36.20
2018-10-05T13:06:08.021Z,35.80
2018-10-05T13:08:36.619Z,33.50
2018-10-05T13:11:05.240Z,33.30
2018-10-05T13:13:33.866Z,33.70
2018-10-05T13:16:02.459Z,34.10
2018-10-05T13:18:31.096Z,33.80
2018-10-05T13:20:59.712Z,33.90
2018-10-05T13:23:28.312Z,34.40
2018-10-05T13:25:56.947Z,35.50
2018-10-05T13:28:25.592Z,35.80
2018-10-05T13:30:54.160Z,36.00
2018-10-05T13:33:22.755Z,35.50
2018-10-05T13:35:51.384Z,34.80
2018-10-05T13:38:19.990Z,35.40
2018-10-05T13:40:48.591Z,34.70
2018-10-05T13:43:17.204Z,32.40
2018-10-05T13:45:45.803Z,33.70
2018-10-05T13:48:14.435Z,34.70
2018-10-05T13:50:43.045Z,34.80
2018-10-05T13:53:11.643Z,34.30
2018-10-05T13:55:40.243Z,34.20
2018-10-05T13:58:08.848Z,33.90
2018-10-05T14:00:37.453Z,34.40
2018-10-05T14:03:06.047Z,33.80
2018-10-05T14:05:34.658Z,33.30
2018-10-05T14:08:03.653Z,33.50
2018-10-05T14:10:32.384Z,33.20
2018-10-05T14:13:00.908Z,33.50
2018-10-05T14:15:29.521Z,32.50
2018-10-05T14:17:58.124Z,33.20
2018-10-05T14:20:26.759Z,33.10
2018-10-05T14:22:55.348Z,33.20
2018-10-05T14:25:24.080Z,32.80
2018-10-05T14:27:52.688Z,33.70
2018-10-05T14:30:21.294Z,33.50
2018-10-05T14:32:49.933Z,33.60
2018-10-05T14:35:18.703Z,33.40
2018-10-05T14:37:47.337Z,33.40
2018-10-05T14:40:16.023Z,33.80
2018-10-05T14:42:44.633Z,34.00
2018-10-05T14:50:00.634Z,32.70
2018-10-05T14:52:29.327Z,33.30
2018-10-05T14:54:57.926Z,33.30
2018-10-05T14:57:26.602Z,34.00
2018-10-05T14:59:55.131Z,33.80
2018-10-05T15:02:23.735Z,33.00
2018-10-05T15:04:52.331Z,32.70
2018-10-05T15:07:20.943Z,31.40
2018-10-05T15:09:49.535Z,32.40
2018-10-05T15:12:18.139Z,32.30
2018-10-05T15:14:46.747Z,32.30
2018-10-05T15:17:15.363Z,32.60
2018-10-05T15:19:43.958Z,32.90
2018-10-05T15:22:12.645Z,32.50
2018-10-05T15:24:41.156Z,32.60
2018-10-05T15:27:10.319Z,32.70
2018-10-05T15:29:38.917Z,32.70
2018-10-05T15:32:07.511Z,32.30
2018-10-05T15:34:36.148Z,32.10
2018-10-05T15:37:04.768Z,32.20
2018-10-05T15:39:33.374Z,32.40
2018-10-05T15:42:01.979Z,32.70
2018-10-05T15:44:30.601Z,32.40
2018-10-05T15:47:02.284Z,31.70
2018-10-05T15:49:31.710Z,31.10
2018-10-05T15:52:00.615Z,30.80
2018-10-05T15:54:29.232Z,30.90
2018-10-05T15:56:57.831Z,30.70
2018-10-05T15:59:26.910Z,30.40
2018-10-05T16:01:55.648Z,30.40
2018-10-05T16:04:24.247Z,30.60
2018-10-05T16:06:52.839Z,29.90
2018-10-05T16:09:21.543Z,28.50
2018-10-05T16:11:50.146Z,27.30
2018-10-05T16:14:18.858Z,26.30
2018-10-05T16:16:47.539Z,25.50
2018-10-05T16:19:16.163Z,24.80
2018-10-05T16:21:44.763Z,24.20
2018-10-05T16:24:18.744Z,23.80
2018-10-05T16:26:47.346Z,23.30
2018-10-05T16:29:15.975Z,22.90
2018-10-05T16:31:44.804Z,22.60
2018-10-05T16:34:13.432Z,22.30
2018-10-05T16:36:42.032Z,22.10
2018-10-05T16:39:11.646Z,21.90
2018-10-05T16:41:40.239Z,21.60
2018-10-05T16:44:08.875Z,21.30
2018-10-05T16:46:38.144Z,21.00
2018-10-05T16:49:08.175Z,20.90
2018-10-05T16:51:36.791Z,20.70
2018-10-05T16:54:05.506Z,20.50
2018-10-05T16:56:34.175Z,20.40
2018-10-05T16:59:02.890Z,20.20
2018-10-05T17:01:31.501Z,19.90
2018-10-05T17:04:00.155Z,19.70
2018-10-05T17:06:28.979Z,19.50
2018-10-05T17:09:01.136Z,19.30
2018-10-05T17:11:29.733Z,19.20
2018-10-05T17:13:58.379Z,19.10
2018-10-05T17:16:27.044Z,18.90
2018-10-05T17:18:55.667Z,18.90
2018-10-05T17:21:24.264Z,18.80
2018-10-05T17:23:52.872Z,18.60
2018-10-05T17:26:21.467Z,18.60
2018-10-05T17:28:50.078Z,18.50
2018-10-05T17:31:18.709Z,18.20
2018-10-05T17:33:47.337Z,18.20
2018-10-05T17:36:15.931Z,18.00
2018-10-05T17:38:44.648Z,17.80
2018-10-05T17:41:13.283Z,17.70
2018-10-05T17:43:41.892Z,17.70
2018-10-05T17:46:10.523Z,17.50
2018-10-05T17:48:39.146Z,17.50
2018-10-05T17:51:07.755Z,17.40
2018-10-05T17:53:36.447Z,17.20
2018-10-05T17:56:05.151Z,17.10
2018-10-05T17:58:33.672Z,16.90
2018-10-05T18:01:02.296Z,16.90
2018-10-05T18:03:30.906Z,16.80
2018-10-05T18:05:59.523Z,16.80
2018-10-05T18:08:28.140Z,16.70
2018-10-05T18:10:56.739Z,16.70
2018-10-05T18:13:25.344Z,16.60
2018-10-05T18:15:53.967Z,16.60
2018-10-05T18:18:23.733Z,16.60
2018-10-05T18:20:52.616Z,16.60
2018-10-05T18:23:21.832Z,16.50
2018-10-05T18:25:50.848Z,16.50
2018-10-05T18:28:19.432Z,16.40
2018-10-05T18:30:48.046Z,16.30
2018-10-05T18:33:16.651Z,16.30
2018-10-05T18:35:45.275Z,16.20
2018-10-05T18:38:13.881Z,16.00
2018-10-05T18:40:42.496Z,16.00
2018-10-05T18:43:11.095Z,16.00
2018-10-05T18:45:39.711Z,15.90
2018-10-05T18:48:08.312Z,15.80
2018-10-05T18:50:36.939Z,15.80
2018-10-05T18:53:05.568Z,15.80
2018-10-05T18:55:34.187Z,15.80
2018-10-05T18:58:02.791Z,15.70
2018-10-05T19:00:31.413Z,15.60
2018-10-05T19:03:00.013Z,15.50
2018-10-05T19:05:28.622Z,15.40
2018-10-05T19:07:57.224Z,15.40
2018-10-05T19:10:25.833Z,15.30
2018-10-05T19:12:54.443Z,15.20
2018-10-05T19:15:23.064Z,15.20
2018-10-05T19:17:51.672Z,15.20
2018-10-05T19:20:20.271Z,15.30
2018-10-05T19:22:48.881Z,15.20
2018-10-05T19:25:17.484Z,15.10
2018-10-05T19:27:46.087Z,15.00
2018-10-05T19:30:14.696Z,15.00
2018-10-05T19:32:43.313Z,14.90
2018-10-05T19:35:11.947Z,14.90
2018-10-05T19:37:40.555Z,14.80
2018-10-05T19:40:09.460Z,14.80
2018-10-05T19:42:38.075Z,14.70
2018-10-05T19:45:07.370Z,14.70
2018-10-05T19:47:36.021Z,14.60
2018-10-05T19:50:04.836Z,14.50
2018-10-05T19:52:33.628Z,14.40
2018-10-05T19:55:02.204Z,14.40
2018-10-05T19:57:30.814Z,14.40
2018-10-05T19:59:59.412Z,14.40
2018-10-05T20:02:28.039Z,14.30
2018-10-05T20:04:56.643Z,14.30
2018-10-05T20:07:25.279Z,14.30
2018-10-05T20:09:53.921Z,14.10
2018-10-05T20:12:22.475Z,14.10
2018-10-05T20:14:51.094Z,14.10
2018-10-05T20:17:19.712Z,14.00
2018-10-05T20:19:48.325Z,14.00
2018-10-05T20:22:16.944Z,14.00
2018-10-05T20:24:45.552Z,13.90
2018-10-05T20:27:14.164Z,13.80
2018-10-05T20:29:42.771Z,13.80
2018-10-05T20:32:11.408Z,13.80
2018-10-05T20:34:40.017Z,13.80
2018-10-05T20:37:08.861Z,13.80
2018-10-05T20:39:37.267Z,13.80
2018-10-05T20:42:05.887Z,13.80
2018-10-05T20:44:34.587Z,13.80
2018-10-05T20:47:03.143Z,13.70
2018-10-05T20:49:31.764Z,13.70
2018-10-05T20:52:00.391Z,13.70
2018-10-05T20:54:28.984Z,13.70
2018-10-05T20:56:57.591Z,13.70
2018-10-05T20:59:26.196Z,13.70
2018-10-05T21:01:54.807Z,13.80
2018-10-05T21:04:23.494Z,13.80
2018-10-05T21:06:52.060Z,13.70
2018-10-05T21:09:20.648Z,13.60
2018-10-05T21:11:49.264Z,13.50
2018-10-05T21:14:17.870Z,13.40
2018-10-05T21:16:46.485Z,13.40
2018-10-05T21:19:15.097Z,13.50
2018-10-05T21:21:43.691Z,13.40
2018-10-05T21:24:12.305Z,13.30
2018-10-05T21:26:40.912Z,13.40
2018-10-05T21:29:09.517Z,13.30
2018-10-05T21:31:38.150Z,13.20
2018-10-05T21:34:06.863Z,13.20
2018-10-05T21:36:35.470Z,13.20
2018-10-05T21:39:06.066Z,13.00
2018-10-05T21:41:34.656Z,13.00
2018-10-05T21:44:03.281Z,13.00
2018-10-05T21:46:32.030Z,13.00
2018-10-05T21:49:00.636Z,13.00
2018-10-05T21:51:29.356Z,12.90
2018-10-05T21:53:57.931Z,13.00
2018-10-05T21:56:26.556Z,12.90
2018-10-05T21:58:55.180Z,12.90
2018-10-05T22:01:23.792Z,12.80
2018-10-05T22:03:52.403Z,12.80
2018-10-05T22:06:21.014Z,12.80
2018-10-05T22:08:49.630Z,12.70
2018-10-05T22:11:18.272Z,12.70
2018-10-05T22:13:46.893Z,12.60
2018-10-05T22:16:15.506Z,12.60
2018-10-05T22:18:44.117Z,12.70
2018-10-05T22:21:12.728Z,12.60
2018-10-05T22:23:41.351Z,12.60
2018-10-05T22:26:09.956Z,12.50
2018-10-05T22:28:38.571Z,12.50
2018-10-05T22:31:07.196Z,12.50
2018-10-05T22:33:35.815Z,12.40
2018-10-05T22:36:04.436Z,12.40
2018-10-05T22:38:33.045Z,12.40
2018-10-05T22:41:01.664Z,12.30
2018-10-05T22:43:30.283Z,12.30
2018-10-05T22:45:58.887Z,12.20
2018-10-05T22:48:27.519Z,12.20
2018-10-05T22:50:56.122Z,12.20
2018-10-05T22:53:24.732Z,12.10
2018-10-05T22:55:53.332Z,12.20
2018-10-05T22:59:46.651Z,12.10
2018-10-05T23:02:15.268Z,12.10
2018-10-05T23:04:43.891Z,12.10
2018-10-05T23:07:12.506Z,12.10
2018-10-05T23:09:41.131Z,12.10
2018-10-05T23:12:09.753Z,12.10
2018-10-05T23:14:38.380Z,12.00
2018-10-05T23:17:07.013Z,12.00
2018-10-05T23:19:35.629Z,12.00
2018-10-05T23:22:04.242Z,11.90
2018-10-05T23:24:32.860Z,11.90
2018-10-05T23:27:01.472Z,12.00
2018-10-05T23:29:30.087Z,12.00
2018-10-05T23:31:58.704Z,11.90
2018-10-05T23:34:27.329Z,12.00
2018-10-05T23:36:55.936Z,11.90
2018-10-05T23:39:24.547Z,11.80
2018-10-05T23:41:53.155Z,11.80
2018-10-05T23:44:21.770Z,11.70
2018-10-05T23:46:50.383Z,11.70
2018-10-05T23:49:19.012Z,11.70
2018-10-05T23:51:47.624Z,11.70
2018-10-05T23:54:16.252Z,11.60
2018-10-05T23:56:44.878Z,11.70
2018-10-05T23:59:13.516Z,11.60
